createdAt,value
2023-02-11T00:02:33.153Z,38.87
2023-02-11T00:05:19.140Z,38.74
2023-02-11T00:08:05.029Z,39.01
2023-02-11T00:10:55.270Z,39.29
2023-02-11T00:13:42.419Z,38.75
2023-02-11T00:16:29.525Z,39.00
2023-02-11T00:19:15.589Z,39.45
2023-02-11T00:22:01.433Z,38.94
2023-02-11T00:24:47.281Z,39.06
2023-02-11T00:27:33.185Z,39.11
2023-02-11T00:30:18.952Z,39.04
2023-02-11T00:33:04.726Z,38.78
2023-02-11T00:35:51.969Z,39.05
2023-02-11T00:38:37.932Z,38.75
2023-02-11T00:41:24.859Z,39.11
2023-02-11T00:44:10.894Z,39.60
2023-02-11T00:46:56.633Z,39.07
2023-02-11T00:49:42.409Z,39.23
2023-02-11T00:52:28.417Z,39.42
2023-02-11T00:55:15.234Z,39.33
2023-02-11T00:58:01.566Z,39.44
2023-02-11T01:00:47.526Z,39.64
2023-02-11T01:03:33.846Z,39.47
2023-02-11T01:06:19.931Z,39.56
2023-02-11T01:09:05.779Z,39.42
2023-02-11T01:11:54.096Z,39.58
2023-02-11T01:14:39.996Z,39.55
2023-02-11T01:17:25.662Z,39.59
2023-02-11T01:20:21.538Z,39.86
2023-02-11T01:23:07.609Z,39.36
2023-02-11T01:25:54.410Z,39.58
2023-02-11T01:28:40.294Z,39.51
2023-02-11T01:31:26.890Z,39.58
2023-02-11T01:34:13.320Z,39.49
2023-02-11T01:36:59.930Z,39.44
2023-02-11T01:39:48.183Z,39.37
2023-02-11T01:42:34.094Z,39.50
2023-02-11T01:45:42.408Z,39.94
2023-02-11T01:48:40.712Z,39.91
2023-02-11T01:51:30.996Z,39.65
2023-02-11T01:54:38.989Z,39.88
2023-02-11T01:57:29.331Z,40.15
2023-02-11T02:00:36.308Z,39.81
2023-02-11T02:03:22.827Z,40.02
2023-02-11T02:06:26.045Z,39.94
2023-02-11T02:09:17.719Z,40.08
2023-02-11T02:12:04.005Z,40.28
2023-02-11T02:14:50.378Z,40.10
2023-02-11T02:17:50.903Z,40.04
2023-02-11T02:20:45.899Z,40.00
2023-02-11T02:24:09.462Z,40.01
2023-02-11T02:27:34.199Z,40.06
2023-02-11T02:30:39.704Z,39.93
2023-02-11T02:33:37.972Z,40.04
2023-02-11T02:36:30.369Z,40.16
2023-02-11T02:39:21.691Z,40.18
2023-02-11T02:42:08.512Z,40.29
2023-02-11T02:44:56.254Z,40.18
2023-02-11T02:47:42.197Z,40.36
2023-02-11T02:50:31.722Z,40.16
2023-02-11T02:53:52.824Z,40.75
2023-02-11T02:56:44.867Z,40.23
2023-02-11T02:59:55.624Z,40.25
2023-02-11T03:03:03.304Z,40.20
2023-02-11T03:05:58.870Z,40.24
2023-02-11T03:08:55.626Z,40.86
2023-02-11T03:11:41.482Z,40.14
2023-02-11T03:14:28.823Z,40.41
2023-02-11T03:17:15.551Z,40.35
2023-02-11T03:20:02.603Z,40.64
2023-02-11T03:23:26.776Z,40.45
2023-02-11T03:26:23.761Z,40.74
2023-02-11T03:29:17.469Z,40.51
2023-02-11T03:32:16.275Z,40.60
2023-02-11T03:35:11.397Z,40.65
2023-02-11T03:38:04.845Z,40.96
2023-02-11T03:40:50.603Z,40.89
2023-02-11T03:43:48.314Z,40.78
2023-02-11T03:46:37.661Z,40.83
2023-02-11T03:49:24.785Z,40.93
2023-02-11T03:52:12.408Z,40.40
2023-02-11T03:55:00.598Z,40.55
2023-02-11T03:57:47.464Z,40.32
2023-02-11T04:00:36.730Z,40.55
2023-02-11T04:03:22.618Z,40.67
2023-02-11T04:06:08.427Z,40.86
2023-02-11T04:08:54.636Z,40.75
2023-02-11T04:11:40.584Z,40.54
2023-02-11T04:14:26.422Z,40.72
2023-02-11T04:17:12.810Z,40.80
2023-02-11T04:19:58.763Z,40.59
2023-02-11T04:22:44.577Z,40.85
2023-02-11T04:25:30.558Z,41.11
2023-02-11T04:28:16.369Z,40.61
2023-02-11T04:31:02.326Z,40.60
2023-02-11T04:33:48.077Z,40.96
2023-02-11T04:36:33.828Z,40.98
2023-02-11T04:39:19.699Z,40.50
2023-02-11T04:42:05.589Z,41.12
2023-02-11T04:44:51.389Z,40.96
2023-02-11T04:47:38.062Z,40.85
2023-02-11T04:50:23.921Z,40.91
2023-02-11T04:53:09.814Z,40.85
2023-02-11T04:55:55.650Z,40.93
2023-02-11T04:58:41.573Z,41.11
2023-02-11T05:01:27.674Z,41.58
2023-02-11T05:04:13.350Z,40.94
2023-02-11T05:06:59.267Z,40.65
2023-02-11T05:09:45.249Z,40.86
2023-02-11T05:12:30.980Z,41.23
2023-02-11T05:15:16.898Z,41.60
2023-02-11T05:18:03.133Z,40.74
2023-02-11T05:20:49.511Z,40.74
2023-02-11T05:23:36.599Z,40.52
2023-02-11T05:26:22.859Z,40.87
2023-02-11T05:29:08.815Z,40.94
2023-02-11T05:31:54.593Z,40.65
2023-02-11T05:34:40.288Z,41.17
2023-02-11T05:37:26.112Z,40.55
2023-02-11T05:40:12.059Z,41.29
2023-02-11T05:42:58.078Z,41.25
2023-02-11T05:45:43.876Z,40.92
2023-02-11T05:48:30.061Z,40.96
2023-02-11T05:51:16.051Z,41.19
2023-02-11T05:54:01.862Z,40.94
2023-02-11T05:56:47.670Z,41.12
2023-02-11T05:59:33.470Z,41.20
2023-02-11T06:02:19.266Z,40.90
2023-02-11T06:05:05.295Z,40.92
2023-02-11T06:07:51.826Z,41.40
2023-02-11T06:10:38.040Z,41.31
2023-02-11T06:13:24.348Z,40.63
2023-02-11T06:16:10.680Z,41.34
2023-02-11T06:18:56.568Z,41.37
2023-02-11T06:21:44.417Z,40.88
2023-02-11T06:24:51.395Z,40.86
2023-02-11T06:27:37.010Z,41.10
2023-02-11T06:30:22.837Z,41.16
2023-02-11T06:33:08.900Z,41.41
2023-02-11T06:35:54.651Z,41.35
2023-02-11T06:38:40.700Z,40.99
2023-02-11T06:41:26.543Z,41.25
2023-02-11T06:44:12.222Z,41.30
2023-02-11T06:46:58.223Z,41.26
2023-02-11T06:49:44.008Z,41.70
2023-02-11T06:52:29.908Z,41.27
2023-02-11T06:55:15.983Z,41.13
2023-02-11T06:58:01.786Z,41.45
2023-02-11T07:00:47.650Z,41.36
2023-02-11T07:03:37.705Z,41.44
2023-02-11T07:06:27.776Z,41.50
2023-02-11T07:09:13.729Z,41.40
2023-02-11T07:11:59.542Z,41.58
2023-02-11T07:14:45.665Z,41.68
2023-02-11T07:17:31.385Z,41.49
2023-02-11T07:20:17.351Z,42.04
2023-02-11T07:23:04.760Z,41.90
2023-02-11T07:25:50.967Z,41.68
2023-02-11T07:28:38.287Z,41.67
2023-02-11T07:31:26.742Z,41.79
2023-02-11T07:34:12.660Z,41.84
2023-02-11T07:36:58.709Z,42.03
2023-02-11T07:39:44.600Z,41.87
2023-02-11T07:42:30.469Z,41.66
2023-02-11T07:45:16.408Z,41.64
2023-02-11T07:48:02.196Z,41.66
2023-02-11T07:50:50.451Z,41.90
2023-02-11T07:53:36.705Z,41.59
2023-02-11T07:56:23.254Z,41.49
2023-02-11T07:59:09.397Z,41.77
2023-02-11T08:01:55.354Z,41.80
2023-02-11T08:04:42.052Z,41.46
2023-02-11T08:07:29.752Z,41.60
2023-02-11T08:10:15.886Z,41.49
2023-02-11T08:13:01.587Z,41.89
2023-02-11T08:15:47.426Z,41.70
2023-02-11T08:18:33.922Z,41.66
2023-02-11T08:21:20.975Z,41.80
2023-02-11T08:24:07.441Z,41.66
2023-02-11T08:26:53.348Z,41.85
2023-02-11T08:29:39.245Z,41.70
2023-02-11T08:32:25.732Z,41.73
2023-02-11T08:35:12.599Z,41.48
2023-02-11T08:37:58.636Z,41.71
2023-02-11T08:40:44.547Z,41.34
2023-02-11T08:43:30.339Z,41.93
2023-02-11T08:46:18.842Z,41.92
2023-02-11T08:49:04.616Z,41.42
2023-02-11T08:51:50.387Z,41.83
2023-02-11T08:54:37.230Z,41.61
2023-02-11T08:57:23.123Z,41.79
2023-02-11T09:00:11.226Z,41.35
2023-02-11T09:02:57.406Z,41.69
2023-02-11T09:05:47.987Z,41.55
2023-02-11T09:08:36.068Z,41.75
2023-02-11T09:11:31.869Z,41.93
2023-02-11T09:14:20.660Z,41.57
2023-02-11T09:17:06.554Z,41.67
2023-02-11T09:19:52.364Z,41.60
2023-02-11T09:22:38.274Z,41.73
2023-02-11T09:25:24.056Z,41.66
2023-02-11T09:28:10.154Z,41.84
2023-02-11T09:30:56.055Z,41.72
2023-02-11T09:33:47.871Z,41.56
2023-02-11T09:36:37.651Z,41.59
2023-02-11T09:39:23.470Z,41.50
2023-02-11T09:42:25.958Z,41.63
2023-02-11T09:45:18.926Z,41.34
2023-02-11T09:48:19.214Z,41.19
2023-02-11T09:51:06.237Z,41.59
2023-02-11T09:54:28.960Z,41.68
2023-02-11T09:57:27.897Z,41.53
2023-02-11T10:00:22.056Z,41.43
2023-02-11T10:03:07.744Z,41.17
2023-02-11T10:05:56.691Z,41.38
2023-02-11T10:09:07.369Z,41.58
2023-02-11T10:12:03.637Z,41.39
2023-02-11T10:15:26.366Z,41.62
2023-02-11T10:18:46.186Z,41.81
2023-02-11T10:21:36.420Z,41.28
2023-02-11T10:24:22.446Z,41.49
2023-02-11T10:27:21.331Z,41.30
2023-02-11T10:30:17.011Z,41.01
2023-02-11T10:33:03.718Z,40.95
2023-02-11T10:35:50.024Z,41.36
2023-02-11T10:38:37.060Z,41.23
2023-02-11T10:41:28.589Z,41.43
2023-02-11T10:44:25.941Z,40.69
2023-02-11T10:47:18.668Z,40.38
2023-02-11T10:50:23.182Z,41.12
2023-02-11T10:53:13.638Z,41.12
2023-02-11T10:55:59.742Z,40.77
2023-02-11T10:58:59.522Z,40.64
2023-02-11T11:01:49.562Z,40.75
2023-02-11T11:04:37.834Z,40.84
2023-02-11T11:07:28.991Z,40.66
2023-02-11T11:10:47.010Z,40.49
2023-02-11T11:13:41.101Z,40.59
2023-02-11T11:16:36.973Z,40.50
2023-02-11T11:19:25.222Z,40.66
2023-02-11T11:22:20.502Z,40.43
2023-02-11T11:25:29.724Z,40.20
2023-02-11T11:28:27.314Z,40.60
2023-02-11T11:31:19.378Z,40.33
2023-02-11T11:34:29.804Z,40.42
2023-02-11T11:37:28.532Z,40.22
2023-02-11T11:40:18.185Z,40.35
2023-02-11T11:43:07.172Z,40.40
2023-02-11T11:45:56.065Z,40.05
2023-02-11T11:48:47.211Z,40.30
2023-02-11T11:51:34.120Z,40.21
2023-02-11T11:54:20.634Z,40.25
2023-02-11T11:57:15.164Z,40.23
2023-02-11T12:00:01.115Z,40.30
2023-02-11T12:03:25.532Z,40.58
2023-02-11T12:06:29.106Z,37.96
2023-02-11T12:09:27.053Z,39.97
2023-02-11T12:12:13.171Z,40.05
2023-02-11T12:15:34.788Z,38.65
2023-02-11T12:18:23.670Z,40.29
2023-02-11T12:21:29.500Z,40.13
2023-02-11T12:24:33.160Z,39.53
2023-02-11T12:27:56.358Z,39.83
2023-02-11T12:30:48.800Z,40.03
2023-02-11T12:33:50.352Z,39.62
2023-02-11T12:37:11.578Z,39.52
2023-02-11T12:40:15.632Z,38.56
2023-02-11T12:43:16.967Z,39.53
2023-02-11T12:46:24.839Z,39.77
2023-02-11T12:49:17.056Z,38.48
2023-02-11T12:52:55.716Z,37.83
2023-02-11T12:55:45.359Z,39.16
2023-02-11T12:58:44.646Z,39.21
2023-02-11T13:01:34.753Z,39.04
2023-02-11T13:04:36.070Z,39.13
2023-02-11T13:07:33.704Z,38.47
2023-02-11T13:10:32.277Z,38.58
2023-02-11T13:13:27.547Z,37.06
2023-02-11T13:16:23.856Z,38.32
2023-02-11T13:19:29.278Z,38.03
2023-02-11T13:22:28.673Z,38.05
2023-02-11T13:25:36.967Z,38.38
2023-02-11T13:28:50.493Z,36.74
2023-02-11T13:31:37.003Z,38.15
2023-02-11T13:34:48.079Z,37.68
2023-02-11T13:37:39.079Z,37.96
2023-02-11T13:40:29.048Z,38.04
2023-02-11T13:43:23.922Z,37.45
2023-02-11T13:46:12.472Z,37.43
2023-02-11T13:48:58.333Z,37.44
2023-02-11T13:51:44.442Z,38.17
2023-02-11T13:54:38.968Z,34.53
2023-02-11T13:57:36.503Z,37.27
2023-02-11T14:00:34.351Z,36.42
2023-02-11T14:03:44.275Z,35.23
2023-02-11T14:07:05.861Z,35.34
2023-02-11T14:09:57.370Z,34.79
2023-02-11T14:12:43.695Z,34.89
2023-02-11T14:15:39.681Z,34.56
2023-02-11T14:18:44.415Z,34.77
2023-02-11T14:21:36.315Z,34.81
2023-02-11T14:24:34.884Z,35.22
2023-02-11T14:27:38.402Z,35.08
2023-02-11T14:30:27.770Z,34.92
2023-02-11T14:33:45.797Z,35.31
2023-02-11T14:36:39.689Z,35.42
2023-02-11T14:39:32.367Z,35.68
2023-02-11T14:42:25.538Z,35.53
2023-02-11T14:45:16.775Z,36.11
2023-02-11T14:48:04.224Z,35.89
2023-02-11T14:50:54.275Z,35.90
2023-02-11T14:53:44.703Z,35.98
2023-02-11T14:56:34.609Z,35.94
2023-02-11T14:59:23.113Z,36.05
2023-02-11T15:02:30.595Z,36.34
2023-02-11T15:05:22.784Z,36.03
2023-02-11T15:08:14.911Z,35.78
2023-02-11T15:11:03.525Z,36.38
2023-02-11T15:13:50.510Z,36.20
2023-02-11T15:16:41.715Z,36.03
2023-02-11T15:19:37.879Z,35.36
2023-02-11T15:22:33.133Z,36.29
2023-02-11T15:25:20.179Z,36.05
2023-02-11T15:28:21.320Z,36.38
2023-02-11T15:31:18.063Z,35.51
2023-02-11T15:34:08.972Z,36.12
2023-02-11T15:36:55.018Z,36.24
2023-02-11T15:39:42.278Z,35.89
2023-02-11T15:42:35.794Z,35.93
2023-02-11T15:45:31.531Z,36.03
2023-02-11T15:48:22.303Z,36.21
2023-02-11T15:51:28.720Z,35.92
2023-02-11T15:54:20.968Z,36.28
2023-02-11T15:57:08.704Z,36.54
2023-02-11T15:59:56.355Z,36.43
2023-02-11T16:02:45.652Z,36.08
2023-02-11T16:05:37.193Z,35.86
2023-02-11T16:08:29.985Z,36.23
2023-02-11T16:11:26.343Z,35.80
2023-02-11T16:14:34.411Z,35.80
2023-02-11T16:17:24.777Z,35.58
2023-02-11T16:20:20.288Z,35.98
2023-02-11T16:23:07.439Z,36.10
2023-02-11T16:26:07.081Z,35.91
2023-02-11T16:28:53.237Z,35.94
2023-02-11T16:31:41.871Z,35.57
2023-02-11T16:34:28.445Z,36.26
2023-02-11T16:37:15.084Z,35.95
2023-02-11T16:40:00.861Z,35.92
2023-02-11T16:42:46.929Z,35.56
2023-02-11T16:45:37.592Z,35.78
2023-02-11T16:48:23.708Z,35.96
2023-02-11T17:13:28.959Z,37.11
2023-02-11T17:16:18.308Z,36.68
2023-02-11T17:19:04.685Z,36.45
2023-02-11T17:21:52.534Z,36.72
2023-02-11T17:24:38.714Z,36.18
2023-02-11T17:27:24.789Z,36.21
2023-02-11T17:30:11.666Z,36.11
2023-02-11T17:32:57.726Z,36.03
2023-02-11T17:35:43.561Z,35.95
2023-02-11T17:38:29.431Z,36.05
2023-02-11T17:41:16.289Z,35.92
2023-02-11T17:44:02.450Z,36.13
2023-02-11T17:46:48.719Z,35.79
2023-02-11T17:49:34.872Z,36.04
2023-02-11T17:52:21.622Z,36.00
2023-02-11T17:55:07.959Z,36.52
2023-02-11T17:57:53.920Z,36.21
2023-02-11T18:00:40.015Z,35.98
2023-02-11T18:03:26.349Z,35.92
2023-02-11T18:06:12.705Z,35.81
2023-02-11T18:08:59.842Z,36.14
2023-02-11T18:11:45.898Z,36.05
2023-02-11T18:14:32.072Z,36.05
2023-02-11T18:17:17.903Z,36.24
2023-02-11T18:20:05.017Z,35.91
2023-02-11T18:22:51.046Z,35.98
2023-02-11T18:25:37.426Z,35.96
2023-02-11T18:28:23.210Z,35.90
2023-02-11T18:31:09.549Z,35.91
2023-02-11T18:33:55.612Z,36.17
2023-02-11T18:36:41.590Z,36.38
2023-02-11T18:39:27.438Z,36.17
2023-02-11T18:42:13.817Z,36.03
2023-02-11T18:45:00.279Z,36.29
2023-02-11T18:47:45.981Z,36.08
2023-02-11T18:50:31.949Z,35.99
2023-02-11T18:53:18.126Z,36.32
2023-02-11T18:56:15.608Z,36.33
2023-02-11T18:59:01.980Z,35.99
2023-02-11T19:01:48.052Z,36.06
2023-02-11T19:04:37.311Z,36.10
2023-02-11T19:07:23.242Z,36.38
2023-02-11T19:10:10.228Z,36.11
2023-02-11T19:12:58.949Z,36.22
2023-02-11T19:15:45.977Z,36.15
2023-02-11T19:18:32.436Z,36.28
2023-02-11T19:21:20.575Z,36.50
2023-02-11T19:24:08.084Z,36.25
2023-02-11T19:26:57.895Z,36.14
2023-02-11T19:29:43.993Z,35.81
2023-02-11T19:32:30.226Z,36.64
2023-02-11T19:35:16.305Z,36.18
2023-02-11T19:38:03.770Z,36.53
2023-02-11T19:40:56.353Z,36.20
2023-02-11T19:43:43.418Z,36.52
2023-02-11T19:46:32.180Z,36.24
2023-02-11T19:49:22.922Z,36.60
2023-02-11T19:52:09.661Z,36.11
2023-02-11T19:54:55.965Z,36.01
2023-02-11T19:57:42.142Z,36.55
2023-02-11T20:00:28.464Z,36.54
2023-02-11T20:03:14.367Z,36.51
2023-02-11T20:06:00.312Z,36.64
2023-02-11T20:08:46.816Z,36.69
2023-02-11T20:11:34.347Z,36.81
2023-02-11T20:14:20.382Z,36.71
2023-02-11T20:17:06.408Z,36.89
2023-02-11T20:19:52.562Z,36.43
2023-02-11T20:22:39.534Z,36.64
2023-02-11T20:25:27.199Z,36.89
2023-02-11T20:28:14.343Z,36.84
2023-02-11T20:31:00.886Z,36.86
2023-02-11T20:33:47.462Z,36.71
2023-02-11T20:36:37.666Z,36.68
2023-02-11T20:39:24.669Z,37.00
2023-02-11T20:42:14.553Z,37.06
2023-02-11T20:45:00.802Z,36.98
2023-02-11T20:47:46.982Z,36.75
2023-02-11T20:50:34.481Z,36.90
2023-02-11T20:53:20.318Z,37.07
2023-02-11T20:56:09.122Z,36.69
2023-02-11T20:58:57.861Z,36.95
2023-02-11T21:01:46.914Z,36.78
2023-02-11T21:04:33.932Z,36.72
2023-02-11T21:07:20.413Z,36.90
2023-02-11T21:10:07.273Z,36.76
2023-02-11T21:12:53.328Z,36.73
2023-02-11T21:15:39.182Z,36.76
2023-02-11T21:18:25.274Z,36.97
2023-02-11T21:21:11.393Z,37.03
2023-02-11T21:23:58.705Z,36.55
2023-02-11T21:26:44.718Z,36.79
2023-02-11T21:29:30.689Z,36.88
2023-02-11T21:32:17.705Z,36.80
2023-02-11T21:35:03.649Z,36.96
2023-02-11T21:37:49.641Z,36.78
2023-02-11T21:40:35.505Z,37.34
2023-02-11T21:43:21.820Z,36.85
2023-02-11T21:46:09.881Z,36.70
2023-02-11T21:48:57.168Z,36.68
2023-02-11T21:51:43.005Z,37.23
2023-02-11T21:54:32.106Z,37.42
2023-02-11T21:57:18.471Z,37.16
2023-02-11T22:00:07.808Z,37.16
2023-02-11T22:02:54.296Z,37.29
2023-02-11T22:05:41.276Z,36.60
2023-02-11T22:08:27.462Z,37.11
2023-02-11T22:11:13.613Z,37.08
2023-02-11T22:13:59.897Z,37.10
2023-02-11T22:16:47.636Z,37.28
2023-02-11T22:19:34.300Z,37.15
2023-02-11T22:22:21.285Z,37.28
2023-02-11T22:25:07.695Z,37.17
2023-02-11T22:27:53.430Z,37.10
2023-02-11T22:30:39.388Z,37.52
2023-02-11T22:33:26.360Z,37.31
2023-02-11T22:36:20.826Z,37.27
2023-02-11T22:39:13.534Z,37.82
2023-02-11T22:41:59.853Z,37.77
2023-02-11T22:44:45.899Z,37.25
2023-02-11T22:47:31.892Z,37.06
2023-02-11T22:50:17.863Z,37.05
2023-02-11T22:53:04.096Z,37.13
2023-02-11T22:55:49.843Z,37.29
2023-02-11T22:58:36.957Z,37.15
2023-02-11T23:01:22.893Z,37.01
2023-02-11T23:04:11.521Z,37.06
2023-02-11T23:06:57.498Z,37.24
2023-02-11T23:09:43.464Z,37.58
2023-02-11T23:12:29.222Z,37.33
2023-02-11T23:15:15.102Z,37.47
2023-02-11T23:18:00.929Z,37.32
2023-02-11T23:20:46.800Z,37.43
2023-02-11T23:23:33.465Z,37.24
2023-02-11T23:26:19.516Z,37.21
2023-02-11T23:29:05.970Z,37.28
2023-02-11T23:31:51.950Z,37.06
2023-02-11T23:34:38.048Z,37.33
2023-02-11T23:37:23.763Z,37.51
2023-02-11T23:40:10.378Z,37.13
2023-02-11T23:42:56.373Z,37.42
2023-02-11T23:45:42.528Z,37.34
2023-02-11T23:48:28.604Z,37.25
2023-02-11T23:51:14.456Z,37.32
2023-02-11T23:54:00.729Z,37.68
2023-02-11T23:56:47.050Z,37.56
2023-02-11T23:59:32.749Z,36.98
